sensor_id;sensor_type;location;lat;lon;timestamp;pressure;altitude;pressure_sealevel;temperature;humidity
10474;BME280;5284;50.446;7.904;2023-05-27T00:03:33;99455.44;;;10.20;100.00
10474;BME280;5284;50.446;7.904;2023-05-27T00:08:38;99457.22;;;10.20;100.00
10474;BME280;5284;50.446;7.904;2023-05-27T00:13:41;99450.53;;;10.14;100.00
10474;BME280;5284;50.446;7.904;2023-05-27T00:18:44;99443.59;;;10.12;100.00
10474;BME280;5284;50.446;7.904;2023-05-27T00:23:51;99449.44;;;10.17;100.00
10474;BME280;5284;50.446;7.904;2023-05-27T00:28:53;99446.56;;;10.20;100.00
10474;BME280;5284;50.446;7.904;2023-05-27T00:33:56;99446.47;;;10.21;100.00
10474;BME280;5284;50.446;7.904;2023-05-27T00:39:01;99451.50;;;10.26;100.00
10474;BME280;5284;50.446;7.904;2023-05-27T00:44:04;99450.63;;;10.25;100.00
10474;BME280;5284;50.446;7.904;2023-05-27T00:49:07;99453.53;;;10.22;100.00
10474;BME280;5284;50.446;7.904;2023-05-27T00:54:11;99445.41;;;10.11;100.00
10474;BME280;5284;50.446;7.904;2023-05-27T00:59:14;99449.34;;;10.06;100.00
10474;BME280;5284;50.446;7.904;2023-05-27T01:04:18;99446.81;;;10.04;100.00
10474;BME280;5284;50.446;7.904;2023-05-27T01:09:25;99454.09;;;9.88;100.00
10474;BME280;5284;50.446;7.904;2023-05-27T01:14:30;99450.63;;;9.74;100.00
10474;BME280;5284;50.446;7.904;2023-05-27T01:19:41;99441.78;;;9.61;100.00
10474;BME280;5284;50.446;7.904;2023-05-27T01:24:49;99435.00;;;9.43;100.00
10474;BME280;5284;50.446;7.904;2023-05-27T01:29:52;99438.81;;;9.39;100.00
10474;BME280;5284;50.446;7.904;2023-05-27T01:34:59;99440.38;;;9.29;100.00
10474;BME280;5284;50.446;7.904;2023-05-27T01:40:08;99437.56;;;9.18;100.00
10474;BME280;5284;50.446;7.904;2023-05-27T01:45:11;99433.38;;;9.14;100.00
10474;BME280;5284;50.446;7.904;2023-05-27T01:50:14;99434.00;;;9.05;100.00
10474;BME280;5284;50.446;7.904;2023-05-27T01:55:19;99433.53;;;8.99;100.00
10474;BME280;5284;50.446;7.904;2023-05-27T02:00:22;99426.47;;;8.85;100.00
10474;BME280;5284;50.446;7.904;2023-05-27T02:05:26;99426.38;;;8.73;100.00
10474;BME280;5284;50.446;7.904;2023-05-27T02:10:30;99431.59;;;8.74;100.00
10474;BME280;5284;50.446;7.904;2023-05-27T02:15:33;99420.50;;;8.68;100.00
10474;BME280;5284;50.446;7.904;2023-05-27T02:20:37;99426.50;;;8.57;100.00
10474;BME280;5284;50.446;7.904;2023-05-27T02:25:41;99421.38;;;8.40;100.00
10474;BME280;5284;50.446;7.904;2023-05-27T02:30:44;99417.66;;;8.29;100.00
10474;BME280;5284;50.446;7.904;2023-05-27T02:35:47;99413.59;;;8.23;100.00
10474;BME280;5284;50.446;7.904;2023-05-27T02:40:51;99423.53;;;8.20;100.00
10474;BME280;5284;50.446;7.904;2023-05-27T02:45:55;99419.84;;;8.22;100.00
10474;BME280;5284;50.446;7.904;2023-05-27T02:51:00;99420.56;;;8.10;100.00
10474;BME280;5284;50.446;7.904;2023-05-27T02:56:05;99417.31;;;8.05;100.00
10474;BME280;5284;50.446;7.904;2023-05-27T03:01:08;99414.97;;;8.01;100.00
10474;BME280;5284;50.446;7.904;2023-05-27T03:06:11;99419.03;;;7.92;100.00
10474;BME280;5284;50.446;7.904;2023-05-27T03:11:17;99417.41;;;7.90;100.00
10474;BME280;5284;50.446;7.904;2023-05-27T03:16:20;99409.72;;;7.85;100.00
10474;BME280;5284;50.446;7.904;2023-05-27T03:21:26;99404.56;;;7.82;100.00
10474;BME280;5284;50.446;7.904;2023-05-27T03:26:30;99414.63;;;7.77;100.00
10474;BME280;5284;50.446;7.904;2023-05-27T03:31:38;99414.63;;;7.77;100.00
10474;BME280;5284;50.446;7.904;2023-05-27T03:36:45;99410.38;;;7.75;100.00
10474;BME280;5284;50.446;7.904;2023-05-27T03:41:51;99410.63;;;7.70;100.00
10474;BME280;5284;50.446;7.904;2023-05-27T03:46:54;99413.47;;;7.67;100.00
10474;BME280;5284;50.446;7.904;2023-05-27T03:51:57;99421.53;;;7.66;100.00
10474;BME280;5284;50.446;7.904;2023-05-27T03:57:05;99420.88;;;7.62;100.00
10474;BME280;5284;50.446;7.904;2023-05-27T04:02:08;99412.63;;;7.67;100.00
10474;BME280;5284;50.446;7.904;2023-05-27T04:07:12;99414.53;;;7.79;100.00
10474;BME280;5284;50.446;7.904;2023-05-27T04:12:18;99409.16;;;7.94;100.00
10474;BME280;5284;50.446;7.904;2023-05-27T04:17:23;99405.94;;;8.03;100.00
10474;BME280;5284;50.446;7.904;2023-05-27T04:22:26;99417.53;;;8.16;100.00
10474;BME280;5284;50.446;7.904;2023-05-27T04:27:31;99410.28;;;8.34;100.00
10474;BME280;5284;50.446;7.904;2023-05-27T04:32:33;99410.25;;;8.48;100.00
10474;BME280;5284;50.446;7.904;2023-05-27T04:37:39;99419.91;;;8.63;100.00
10474;BME280;5284;50.446;7.904;2023-05-27T04:42:45;99418.00;;;8.79;100.00
10474;BME280;5284;50.446;7.904;2023-05-27T04:47:49;99415.03;;;8.97;100.00
10474;BME280;5284;50.446;7.904;2023-05-27T04:52:54;99415.72;;;9.13;100.00
10474;BME280;5284;50.446;7.904;2023-05-27T04:57:59;99423.25;;;9.33;100.00
10474;BME280;5284;50.446;7.904;2023-05-27T05:03:04;99420.97;;;9.53;100.00
10474;BME280;5284;50.446;7.904;2023-05-27T05:08:10;99411.66;;;9.73;100.00
10474;BME280;5284;50.446;7.904;2023-05-27T05:13:15;99422.84;;;9.90;100.00
10474;BME280;5284;50.446;7.904;2023-05-27T05:18:18;99410.66;;;10.13;100.00
10474;BME280;5284;50.446;7.904;2023-05-27T05:23:22;99415.56;;;10.31;100.00
10474;BME280;5284;50.446;7.904;2023-05-27T05:28:26;99412.56;;;10.61;100.00
10474;BME280;5284;50.446;7.904;2023-05-27T05:33:29;99416.75;;;10.88;100.00
10474;BME280;5284;50.446;7.904;2023-05-27T05:38:32;99415.13;;;11.21;100.00
10474;BME280;5284;50.446;7.904;2023-05-27T05:43:37;99409.91;;;11.43;100.00
10474;BME280;5284;50.446;7.904;2023-05-27T05:48:43;99413.38;;;11.80;100.00
10474;BME280;5284;50.446;7.904;2023-05-27T05:53:51;99417.69;;;12.04;100.00
10474;BME280;5284;50.446;7.904;2023-05-27T05:58:55;99412.16;;;12.29;100.00
10474;BME280;5284;50.446;7.904;2023-05-27T06:04:00;99403.66;;;12.57;100.00
10474;BME280;5284;50.446;7.904;2023-05-27T06:09:13;99418.25;;;13.08;98.28
10474;BME280;5284;50.446;7.904;2023-05-27T06:14:18;99422.88;;;13.06;95.42
10474;BME280;5284;50.446;7.904;2023-05-27T06:19:22;99416.47;;;13.40;93.26
10474;BME280;5284;50.446;7.904;2023-05-27T06:24:25;99419.28;;;13.70;92.38
10474;BME280;5284;50.446;7.904;2023-05-27T06:29:39;99424.75;;;13.99;89.00
10474;BME280;5284;50.446;7.904;2023-05-27T06:34:42;99420.97;;;14.22;89.86
10474;BME280;5284;50.446;7.904;2023-05-27T06:39:46;99410.13;;;14.24;85.08
10474;BME280;5284;50.446;7.904;2023-05-27T06:44:51;99410.94;;;14.65;83.64
10474;BME280;5284;50.446;7.904;2023-05-27T06:49:57;99409.47;;;14.31;83.93
10474;BME280;5284;50.446;7.904;2023-05-27T06:55:00;99407.97;;;14.78;84.43
10474;BME280;5284;50.446;7.904;2023-05-27T07:00:25;99404.06;;;14.91;85.12
10474;BME280;5284;50.446;7.904;2023-05-27T07:05:54;99393.69;;;15.07;83.95
10474;BME280;5284;50.446;7.904;2023-05-27T07:11:00;99384.00;;;14.95;82.11
10474;BME280;5284;50.446;7.904;2023-05-27T07:16:06;99391.84;;;15.08;81.69
10474;BME280;5284;50.446;7.904;2023-05-27T07:21:09;99388.34;;;15.26;81.62
10474;BME280;5284;50.446;7.904;2023-05-27T07:26:13;99398.47;;;15.90;76.42
10474;BME280;5284;50.446;7.904;2023-05-27T07:31:18;99387.84;;;15.89;76.84
10474;BME280;5284;50.446;7.904;2023-05-27T07:36:28;99395.03;;;16.36;74.22
10474;BME280;5284;50.446;7.904;2023-05-27T07:41:31;99384.47;;;15.68;74.96
10474;BME280;5284;50.446;7.904;2023-05-27T07:46:38;99373.38;;;16.09;73.05
10474;BME280;5284;50.446;7.904;2023-05-27T07:51:42;99369.66;;;16.38;70.34
10474;BME280;5284;50.446;7.904;2023-05-27T07:56:46;99360.50;;;16.68;68.52
10474;BME280;5284;50.446;7.904;2023-05-27T08:01:50;99355.81;;;17.14;68.67
10474;BME280;5284;50.446;7.904;2023-05-27T08:06:53;99354.00;;;17.32;67.20
10474;BME280;5284;50.446;7.904;2023-05-27T08:12:05;99346.06;;;17.83;65.74
10474;BME280;5284;50.446;7.904;2023-05-27T08:17:21;99344.72;;;17.61;60.24
10474;BME280;5284;50.446;7.904;2023-05-27T08:22:44;99341.75;;;18.58;60.99
10474;BME280;5284;50.446;7.904;2023-05-27T08:28:06;99328.66;;;18.20;62.97
10474;BME280;5284;50.446;7.904;2023-05-27T08:33:37;99330.28;;;17.88;61.25
10474;BME280;5284;50.446;7.904;2023-05-27T08:38:41;99330.13;;;18.57;58.49
10474;BME280;5284;50.446;7.904;2023-05-27T08:43:51;99324.22;;;18.70;56.86
10474;BME280;5284;50.446;7.904;2023-05-27T08:49:06;99324.19;;;18.29;56.39
10474;BME280;5284;50.446;7.904;2023-05-27T08:54:09;99314.97;;;18.72;59.00
10474;BME280;5284;50.446;7.904;2023-05-27T08:59:13;99310.53;;;18.63;58.91
10474;BME280;5284;50.446;7.904;2023-05-27T09:04:18;99308.09;;;19.35;55.49
10474;BME280;5284;50.446;7.904;2023-05-27T09:09:21;99305.44;;;19.59;53.32
10474;BME280;5284;50.446;7.904;2023-05-27T09:14:24;99307.47;;;19.57;53.50
10474;BME280;5284;50.446;7.904;2023-05-27T09:19:30;99288.16;;;20.08;54.92
10474;BME280;5284;50.446;7.904;2023-05-27T09:24:33;99283.63;;;20.09;52.84
10474;BME280;5284;50.446;7.904;2023-05-27T09:29:37;99288.81;;;20.18;51.16
10474;BME280;5284;50.446;7.904;2023-05-27T09:34:42;99280.00;;;20.86;51.44
10474;BME280;5284;50.446;7.904;2023-05-27T09:45:24;99275.03;;;20.90;53.30
10474;BME280;5284;50.446;7.904;2023-05-27T09:50:30;99269.28;;;21.46;51.00
10474;BME280;5284;50.446;7.904;2023-05-27T09:55:33;99268.47;;;21.37;50.73
10474;BME280;5284;50.446;7.904;2023-05-27T10:00:38;99259.31;;;21.38;49.90
10474;BME280;5284;50.446;7.904;2023-05-27T10:05:46;99246.97;;;20.75;50.06
10474;BME280;5284;50.446;7.904;2023-05-27T10:10:51;99248.44;;;21.69;50.23
10474;BME280;5284;50.446;7.904;2023-05-27T10:15:55;99234.41;;;21.79;48.84
10474;BME280;5284;50.446;7.904;2023-05-27T10:21:03;99241.47;;;22.17;49.06
10474;BME280;5284;50.446;7.904;2023-05-27T10:26:07;99233.31;;;22.03;47.58
10474;BME280;5284;50.446;7.904;2023-05-27T10:31:13;99235.25;;;21.80;45.94
10474;BME280;5284;50.446;7.904;2023-05-27T10:36:26;99234.41;;;22.60;46.62
10474;BME280;5284;50.446;7.904;2023-05-27T10:41:38;99224.88;;;21.61;46.31
10474;BME280;5284;50.446;7.904;2023-05-27T10:46:43;99218.59;;;21.61;47.13
10474;BME280;5284;50.446;7.904;2023-05-27T10:51:49;99212.22;;;22.05;47.03
10474;BME280;5284;50.446;7.904;2023-05-27T10:56:52;99214.31;;;22.32;46.36
10474;BME280;5284;50.446;7.904;2023-05-27T11:01:58;99207.06;;;22.10;45.02
10474;BME280;5284;50.446;7.904;2023-05-27T11:07:03;99200.06;;;22.15;46.46
10474;BME280;5284;50.446;7.904;2023-05-27T11:12:07;99200.03;;;22.73;46.64
10474;BME280;5284;50.446;7.904;2023-05-27T11:17:11;99202.63;;;22.46;44.87
10474;BME280;5284;50.446;7.904;2023-05-27T11:22:16;99196.66;;;23.69;44.14
10474;BME280;5284;50.446;7.904;2023-05-27T11:27:20;99184.38;;;23.32;46.03
10474;BME280;5284;50.446;7.904;2023-05-27T11:32:22;99179.25;;;24.19;43.52
10474;BME280;5284;50.446;7.904;2023-05-27T11:37:32;99159.88;;;24.48;41.87
10474;BME280;5284;50.446;7.904;2023-05-27T11:42:36;99162.69;;;24.61;42.70
10474;BME280;5284;50.446;7.904;2023-05-27T11:47:40;99151.84;;;24.80;41.75
10474;BME280;5284;50.446;7.904;2023-05-27T11:52:52;99161.44;;;25.29;40.50
10474;BME280;5284;50.446;7.904;2023-05-27T11:57:55;99153.03;;;25.24;38.95
10474;BME280;5284;50.446;7.904;2023-05-27T12:02:58;99144.88;;;25.57;37.82
10474;BME280;5284;50.446;7.904;2023-05-27T12:08:03;99142.13;;;25.76;39.01
10474;BME280;5284;50.446;7.904;2023-05-27T12:13:07;99132.84;;;26.10;39.35
10474;BME280;5284;50.446;7.904;2023-05-27T12:18:09;99131.84;;;26.67;37.55
10474;BME280;5284;50.446;7.904;2023-05-27T12:23:14;99126.47;;;27.23;37.14
10474;BME280;5284;50.446;7.904;2023-05-27T12:28:17;99120.91;;;26.61;36.07
10474;BME280;5284;50.446;7.904;2023-05-27T12:33:20;99105.56;;;28.20;35.07
10474;BME280;5284;50.446;7.904;2023-05-27T12:38:24;99104.88;;;27.33;35.68
10474;BME280;5284;50.446;7.904;2023-05-27T12:43:27;99097.34;;;28.20;34.51
10474;BME280;5284;50.446;7.904;2023-05-27T12:48:30;99100.59;;;29.11;33.29
10474;BME280;5284;50.446;7.904;2023-05-27T12:53:35;99102.41;;;28.88;34.41
10474;BME280;5284;50.446;7.904;2023-05-27T12:58:38;99099.13;;;28.79;34.20
10474;BME280;5284;50.446;7.904;2023-05-27T13:03:41;99092.84;;;30.06;31.74
10474;BME280;5284;50.446;7.904;2023-05-27T13:08:45;99075.75;;;31.56;29.50
10474;BME280;5284;50.446;7.904;2023-05-27T13:13:48;99071.16;;;29.00;31.53
10474;BME280;5284;50.446;7.904;2023-05-27T13:18:51;99074.25;;;31.32;30.25
10474;BME280;5284;50.446;7.904;2023-05-27T13:23:56;99074.50;;;31.63;30.47
10474;BME280;5284;50.446;7.904;2023-05-27T13:28:59;99069.59;;;31.65;30.34
10474;BME280;5284;50.446;7.904;2023-05-27T13:34:02;99068.50;;;31.82;29.50
10474;BME280;5284;50.446;7.904;2023-05-27T13:39:07;99063.06;;;32.90;28.45
10474;BME280;5284;50.446;7.904;2023-05-27T13:44:11;99058.63;;;34.14;28.24
10474;BME280;5284;50.446;7.904;2023-05-27T13:49:14;99048.91;;;34.12;27.17
10474;BME280;5284;50.446;7.904;2023-05-27T13:54:22;99031.50;;;34.78;26.86
10474;BME280;5284;50.446;7.904;2023-05-27T13:59:25;99036.28;;;34.31;26.25
10474;BME280;5284;50.446;7.904;2023-05-27T14:04:28;99021.31;;;35.88;27.19
10474;BME280;5284;50.446;7.904;2023-05-27T14:09:32;99006.03;;;35.85;26.52
10474;BME280;5284;50.446;7.904;2023-05-27T14:14:35;99015.72;;;34.98;26.34
10474;BME280;5284;50.446;7.904;2023-05-27T14:19:38;99010.41;;;34.77;26.58
10474;BME280;5284;50.446;7.904;2023-05-27T14:24:43;99004.13;;;35.61;26.77
10474;BME280;5284;50.446;7.904;2023-05-27T14:29:46;99005.47;;;35.03;25.74
10474;BME280;5284;50.446;7.904;2023-05-27T14:34:49;99004.59;;;33.34;28.33
10474;BME280;5284;50.446;7.904;2023-05-27T14:39:53;98995.72;;;34.76;25.27
10474;BME280;5284;50.446;7.904;2023-05-27T14:44:56;98999.13;;;35.48;25.05
10474;BME280;5284;50.446;7.904;2023-05-27T14:49:58;98991.03;;;35.06;25.56
10474;BME280;5284;50.446;7.904;2023-05-27T14:55:04;98981.81;;;34.00;25.36
10474;BME280;5284;50.446;7.904;2023-05-27T15:00:08;98988.00;;;35.83;26.02
10474;BME280;5284;50.446;7.904;2023-05-27T15:05:12;98983.03;;;36.96;24.78
10474;BME280;5284;50.446;7.904;2023-05-27T15:10:16;98975.03;;;36.37;24.37
10474;BME280;5284;50.446;7.904;2023-05-27T15:15:20;98982.09;;;36.72;24.19
10474;BME280;5284;50.446;7.904;2023-05-27T15:20:23;98971.53;;;38.68;23.56
10474;BME280;5284;50.446;7.904;2023-05-27T15:25:29;98971.63;;;39.69;23.54
10474;BME280;5284;50.446;7.904;2023-05-27T15:30:32;98965.88;;;38.08;23.71
10474;BME280;5284;50.446;7.904;2023-05-27T15:35:35;98969.81;;;39.09;23.39
10474;BME280;5284;50.446;7.904;2023-05-27T15:40:40;98964.06;;;37.70;23.19
10474;BME280;5284;50.446;7.904;2023-05-27T15:45:44;98968.19;;;38.90;22.97
10474;BME280;5284;50.446;7.904;2023-05-27T15:51:05;98965.97;;;40.28;22.35
10474;BME280;5284;50.446;7.904;2023-05-27T15:56:10;98953.13;;;38.49;22.13
10474;BME280;5284;50.446;7.904;2023-05-27T16:01:13;98948.25;;;41.83;20.77
10474;BME280;5284;50.446;7.904;2023-05-27T16:06:16;98934.41;;;40.14;21.76
10474;BME280;5284;50.446;7.904;2023-05-27T16:11:21;98929.38;;;39.39;21.62
10474;BME280;5284;50.446;7.904;2023-05-27T16:16:25;98928.03;;;40.98;21.97
10474;BME280;5284;50.446;7.904;2023-05-27T16:21:28;98916.34;;;40.20;21.17
10474;BME280;5284;50.446;7.904;2023-05-27T16:26:34;98927.69;;;42.43;20.30
10474;BME280;5284;50.446;7.904;2023-05-27T16:31:37;98925.56;;;42.01;20.19
10474;BME280;5284;50.446;7.904;2023-05-27T16:36:40;98920.53;;;42.11;20.62
10474;BME280;5284;50.446;7.904;2023-05-27T16:41:44;98927.78;;;41.82;21.66
10474;BME280;5284;50.446;7.904;2023-05-27T16:46:47;98914.53;;;43.20;20.61
10474;BME280;5284;50.446;7.904;2023-05-27T16:51:50;98912.47;;;42.27;20.15
10474;BME280;5284;50.446;7.904;2023-05-27T16:56:54;98905.50;;;40.67;21.33
10474;BME280;5284;50.446;7.904;2023-05-27T17:01:57;98898.63;;;41.31;20.26
10474;BME280;5284;50.446;7.904;2023-05-27T17:07:00;98892.50;;;39.23;21.50
10474;BME280;5284;50.446;7.904;2023-05-27T17:12:05;98893.50;;;41.24;20.60
10474;BME280;5284;50.446;7.904;2023-05-27T17:17:08;98897.41;;;40.17;21.06
10474;BME280;5284;50.446;7.904;2023-05-27T17:22:11;98891.47;;;38.09;22.40
10474;BME280;5284;50.446;7.904;2023-05-27T17:27:15;98887.75;;;38.92;22.12
10474;BME280;5284;50.446;7.904;2023-05-27T17:32:18;98874.44;;;35.66;23.82
10474;BME280;5284;50.446;7.904;2023-05-27T17:37:21;98873.28;;;30.25;28.06
10474;BME280;5284;50.446;7.904;2023-05-27T17:42:25;98861.19;;;27.67;31.14
10474;BME280;5284;50.446;7.904;2023-05-27T17:47:28;98857.75;;;26.58;31.83
10474;BME280;5284;50.446;7.904;2023-05-27T17:52:31;98859.31;;;26.41;32.99
10474;BME280;5284;50.446;7.904;2023-05-27T17:57:35;98854.38;;;25.56;34.17
10474;BME280;5284;50.446;7.904;2023-05-27T18:02:38;98849.78;;;24.68;35.21
10474;BME280;5284;50.446;7.904;2023-05-27T18:07:41;98851.84;;;24.33;37.33
10474;BME280;5284;50.446;7.904;2023-05-27T18:12:45;98853.72;;;24.20;37.67
10474;BME280;5284;50.446;7.904;2023-05-27T18:17:48;98855.19;;;24.03;37.88
10474;BME280;5284;50.446;7.904;2023-05-27T18:22:51;98851.94;;;23.73;38.02
10474;BME280;5284;50.446;7.904;2023-05-27T18:27:55;98854.41;;;23.62;37.83
10474;BME280;5284;50.446;7.904;2023-05-27T18:32:59;98856.34;;;23.21;39.41
10474;BME280;5284;50.446;7.904;2023-05-27T18:38:02;98861.59;;;22.89;40.80
10474;BME280;5284;50.446;7.904;2023-05-27T18:43:06;98868.91;;;22.61;41.03
10474;BME280;5284;50.446;7.904;2023-05-27T18:48:09;98866.25;;;22.19;41.00
10474;BME280;5284;50.446;7.904;2023-05-27T18:53:12;98865.91;;;21.86;42.13
10474;BME280;5284;50.446;7.904;2023-05-27T18:58:17;98860.41;;;21.45;44.54
10474;BME280;5284;50.446;7.904;2023-05-27T19:03:20;98870.09;;;21.18;43.73
10474;BME280;5284;50.446;7.904;2023-05-27T19:08:23;98864.56;;;20.83;45.57
10474;BME280;5284;50.446;7.904;2023-05-27T19:13:27;98870.22;;;20.44;46.39
10474;BME280;5284;50.446;7.904;2023-05-27T19:18:30;98878.03;;;20.03;48.92
10474;BME280;5284;50.446;7.904;2023-05-27T19:23:34;98867.66;;;19.61;51.72
10474;BME280;5284;50.446;7.904;2023-05-27T19:28:39;98869.06;;;19.19;54.20
10474;BME280;5284;50.446;7.904;2023-05-27T19:33:43;98868.88;;;18.74;58.02
10474;BME280;5284;50.446;7.904;2023-05-27T19:38:48;98876.03;;;18.43;61.20
10474;BME280;5284;50.446;7.904;2023-05-27T19:43:53;98878.72;;;18.11;65.22
10474;BME280;5284;50.446;7.904;2023-05-27T19:48:57;98880.22;;;17.82;67.39
10474;BME280;5284;50.446;7.904;2023-05-27T19:53:59;98875.44;;;17.52;68.18
10474;BME280;5284;50.446;7.904;2023-05-27T19:59:04;98877.03;;;17.21;68.73
10474;BME280;5284;50.446;7.904;2023-05-27T20:04:09;98884.50;;;16.93;70.72
10474;BME280;5284;50.446;7.904;2023-05-27T20:09:12;98889.88;;;16.60;72.70
10474;BME280;5284;50.446;7.904;2023-05-27T20:14:16;98882.72;;;16.26;73.89
10474;BME280;5284;50.446;7.904;2023-05-27T20:19:19;98883.28;;;16.12;72.82
10474;BME280;5284;50.446;7.904;2023-05-27T20:24:22;98893.00;;;15.87;75.40
10474;BME280;5284;50.446;7.904;2023-05-27T20:29:27;98888.53;;;15.78;75.66
10474;BME280;5284;50.446;7.904;2023-05-27T20:34:29;98895.22;;;15.57;76.93
10474;BME280;5284;50.446;7.904;2023-05-27T20:39:32;98890.44;;;15.33;78.23
10474;BME280;5284;50.446;7.904;2023-05-27T20:44:37;98888.28;;;15.10;80.33
10474;BME280;5284;50.446;7.904;2023-05-27T20:49:41;98889.69;;;14.87;82.69
10474;BME280;5284;50.446;7.904;2023-05-27T20:54:44;98891.47;;;14.69;84.42
10474;BME280;5284;50.446;7.904;2023-05-27T20:59:48;98893.22;;;14.42;84.38
10474;BME280;5284;50.446;7.904;2023-05-27T21:04:52;98887.91;;;14.32;83.85
10474;BME280;5284;50.446;7.904;2023-05-27T21:09:55;98894.00;;;14.06;86.01
10474;BME280;5284;50.446;7.904;2023-05-27T21:15:00;98890.47;;;13.96;85.78
10474;BME280;5284;50.446;7.904;2023-05-27T21:20:04;98895.84;;;13.86;87.22
10474;BME280;5284;50.446;7.904;2023-05-27T21:25:08;98888.78;;;13.76;88.59
10474;BME280;5284;50.446;7.904;2023-05-27T21:30:13;98885.56;;;13.63;88.78
10474;BME280;5284;50.446;7.904;2023-05-27T21:35:16;98891.19;;;13.51;89.72
10474;BME280;5284;50.446;7.904;2023-05-27T21:40:20;98897.41;;;13.42;90.42
10474;BME280;5284;50.446;7.904;2023-05-27T21:45:26;98887.94;;;13.38;90.81
10474;BME280;5284;50.446;7.904;2023-05-27T21:50:29;98878.31;;;13.26;92.11
10474;BME280;5284;50.446;7.904;2023-05-27T21:55:33;98877.34;;;13.17;92.28
10474;BME280;5284;50.446;7.904;2023-05-27T22:00:40;98868.28;;;13.09;92.62
10474;BME280;5284;50.446;7.904;2023-05-27T22:05:43;98874.75;;;12.97;92.99
10474;BME280;5284;50.446;7.904;2023-05-27T22:10:49;98865.69;;;12.88;94.38
10474;BME280;5284;50.446;7.904;2023-05-27T22:15:53;98859.47;;;12.78;95.08
10474;BME280;5284;50.446;7.904;2023-05-27T22:20:59;98861.44;;;12.76;94.56
10474;BME280;5284;50.446;7.904;2023-05-27T22:26:02;98856.97;;;12.56;94.88
10474;BME280;5284;50.446;7.904;2023-05-27T22:31:06;98852.28;;;12.49;95.26
10474;BME280;5284;50.446;7.904;2023-05-27T22:36:09;98846.50;;;12.44;95.46
10474;BME280;5284;50.446;7.904;2023-05-27T22:41:13;98837.78;;;12.42;96.38
10474;BME280;5284;50.446;7.904;2023-05-27T22:46:17;98833.31;;;12.22;98.32
10474;BME280;5284;50.446;7.904;2023-05-27T22:51:20;98841.69;;;12.08;99.64
10474;BME280;5284;50.446;7.904;2023-05-27T22:56:23;98843.47;;;11.98;100.00
10474;BME280;5284;50.446;7.904;2023-05-27T23:01:28;98838.88;;;11.89;100.00
10474;BME280;5284;50.446;7.904;2023-05-27T23:06:31;98825.47;;;11.80;100.00
10474;BME280;5284;50.446;7.904;2023-05-27T23:11:34;98832.91;;;11.76;100.00
10474;BME280;5284;50.446;7.904;2023-05-27T23:16:38;98836.09;;;11.70;100.00
10474;BME280;5284;50.446;7.904;2023-05-27T23:21:41;98829.25;;;11.57;100.00
10474;BME280;5284;50.446;7.904;2023-05-27T23:26:44;98836.59;;;11.44;100.00
10474;BME280;5284;50.446;7.904;2023-05-27T23:31:49;98839.81;;;11.47;100.00
10474;BME280;5284;50.446;7.904;2023-05-27T23:36:51;98821.72;;;11.30;100.00
10474;BME280;5284;50.446;7.904;2023-05-27T23:41:54;98825.13;;;11.21;100.00
10474;BME280;5284;50.446;7.904;2023-05-27T23:46:59;98817.88;;;11.12;100.00
10474;BME280;5284;50.446;7.904;2023-05-27T23:52:02;98812.22;;;11.06;100.00
10474;BME280;5284;50.446;7.904;2023-05-27T23:57:05;98805.22;;;10.94;100.00
